sensor_id;sensor_type;location;lat;lon;timestamp;P1;durP1;ratioP1;P2;durP2;ratioP2
33579;SDS011;19909;43.644;-79.438;2023-06-14T00:01:00;3.95;;;2.97;;
33579;SDS011;19909;43.644;-79.438;2023-06-14T00:03:28;3.50;;;3.20;;
33579;SDS011;19909;43.644;-79.438;2023-06-14T00:05:57;2.72;;;2.53;;
33579;SDS011;19909;43.644;-79.438;2023-06-14T00:08:23;3.28;;;2.97;;
33579;SDS011;19909;43.644;-79.438;2023-06-14T00:10:50;3.35;;;3.05;;
33579;SDS011;19909;43.644;-79.438;2023-06-14T00:13:17;3.17;;;2.88;;
33579;SDS011;19909;43.644;-79.438;2023-06-14T00:15:43;3.40;;;3.10;;
33579;SDS011;19909;43.644;-79.438;2023-06-14T00:18:11;3.47;;;2.70;;
33579;SDS011;19909;43.644;-79.438;2023-06-14T00:20:37;3.33;;;2.80;;
33579;SDS011;19909;43.644;-79.438;2023-06-14T00:23:04;3.13;;;2.60;;
33579;SDS011;19909;43.644;-79.438;2023-06-14T00:25:31;3.22;;;2.80;;
33579;SDS011;19909;43.644;-79.438;2023-06-14T00:27:57;3.33;;;3.00;;
33579;SDS011;19909;43.644;-79.438;2023-06-14T00:30:23;3.40;;;3.10;;
33579;SDS011;19909;43.644;-79.438;2023-06-14T00:32:50;3.47;;;3.17;;
33579;SDS011;19909;43.644;-79.438;2023-06-14T00:35:17;3.33;;;3.03;;
33579;SDS011;19909;43.644;-79.438;2023-06-14T00:37:43;3.15;;;2.80;;
33579;SDS011;19909;43.644;-79.438;2023-06-14T00:40:09;2.92;;;2.70;;
33579;SDS011;19909;43.644;-79.438;2023-06-14T00:42:36;3.28;;;2.80;;
33579;SDS011;19909;43.644;-79.438;2023-06-14T00:45:02;6.05;;;5.22;;
33579;SDS011;19909;43.644;-79.438;2023-06-14T00:47:28;6.43;;;5.75;;
33579;SDS011;19909;43.644;-79.438;2023-06-14T00:49:54;8.65;;;6.43;;
33579;SDS011;19909;43.644;-79.438;2023-06-14T00:52:22;8.25;;;7.35;;
33579;SDS011;19909;43.644;-79.438;2023-06-14T00:54:49;6.70;;;5.75;;
33579;SDS011;19909;43.644;-79.438;2023-06-14T00:57:15;7.20;;;6.50;;
33579;SDS011;19909;43.644;-79.438;2023-06-14T00:59:45;6.20;;;5.63;;
33579;SDS011;19909;43.644;-79.438;2023-06-14T01:02:13;7.35;;;5.82;;
33579;SDS011;19909;43.644;-79.438;2023-06-14T01:04:46;6.57;;;5.97;;
33579;SDS011;19909;43.644;-79.438;2023-06-14T01:12:49;6.47;;;5.75;;
33579;SDS011;19909;43.644;-79.438;2023-06-14T01:15:23;7.43;;;5.90;;
33579;SDS011;19909;43.644;-79.438;2023-06-14T01:17:51;8.63;;;6.47;;
33579;SDS011;19909;43.644;-79.438;2023-06-14T01:20:21;6.65;;;6.05;;
33579;SDS011;19909;43.644;-79.438;2023-06-14T01:22:57;8.32;;;7.50;;
33579;SDS011;19909;43.644;-79.438;2023-06-14T01:25:24;7.60;;;6.65;;
33579;SDS011;19909;43.644;-79.438;2023-06-14T01:28:01;7.28;;;6.57;;
33579;SDS011;19909;43.644;-79.438;2023-06-14T01:30:35;8.98;;;6.63;;
33579;SDS011;19909;43.644;-79.438;2023-06-14T01:33:03;8.63;;;7.78;;
33579;SDS011;19909;43.644;-79.438;2023-06-14T01:35:31;7.03;;;6.32;;
33579;SDS011;19909;43.644;-79.438;2023-06-14T01:37:57;7.60;;;6.78;;
33579;SDS011;19909;43.644;-79.438;2023-06-14T01:40:25;7.03;;;5.90;;
33579;SDS011;19909;43.644;-79.438;2023-06-14T01:42:52;8.55;;;5.93;;
33579;SDS011;19909;43.644;-79.438;2023-06-14T01:45:19;8.07;;;6.20;;
33579;SDS011;19909;43.644;-79.438;2023-06-14T01:47:47;8.05;;;6.80;;
33579;SDS011;19909;43.644;-79.438;2023-06-14T01:50:13;7.28;;;5.95;;
33579;SDS011;19909;43.644;-79.438;2023-06-14T01:52:40;6.95;;;6.15;;
33579;SDS011;19909;43.644;-79.438;2023-06-14T01:55:06;7.53;;;6.38;;
33579;SDS011;19909;43.644;-79.438;2023-06-14T01:57:33;6.95;;;6.28;;
33579;SDS011;19909;43.644;-79.438;2023-06-14T01:59:59;7.38;;;6.63;;
33579;SDS011;19909;43.644;-79.438;2023-06-14T02:02:26;7.40;;;6.20;;
33579;SDS011;19909;43.644;-79.438;2023-06-14T02:04:52;6.95;;;6.13;;
33579;SDS011;19909;43.644;-79.438;2023-06-14T02:07:22;7.15;;;6.38;;
33579;SDS011;19909;43.644;-79.438;2023-06-14T02:09:49;6.18;;;5.45;;
33579;SDS011;19909;43.644;-79.438;2023-06-14T02:12:15;7.00;;;6.30;;
33579;SDS011;19909;43.644;-79.438;2023-06-14T02:14:41;6.00;;;5.40;;
33579;SDS011;19909;43.644;-79.438;2023-06-14T02:17:09;6.80;;;6.10;;
33579;SDS011;19909;43.644;-79.438;2023-06-14T02:19:35;6.05;;;5.45;;
33579;SDS011;19909;43.644;-79.438;2023-06-14T02:22:02;7.45;;;5.32;;
33579;SDS011;19909;43.644;-79.438;2023-06-14T02:24:28;6.38;;;5.78;;
33579;SDS011;19909;43.644;-79.438;2023-06-14T02:26:55;6.28;;;5.45;;
33579;SDS011;19909;43.644;-79.438;2023-06-14T02:29:21;6.05;;;5.30;;
33579;SDS011;19909;43.644;-79.438;2023-06-14T02:31:47;5.65;;;5.15;;
33579;SDS011;19909;43.644;-79.438;2023-06-14T02:34:13;6.95;;;5.78;;
33579;SDS011;19909;43.644;-79.438;2023-06-14T02:36:42;6.03;;;5.47;;
33579;SDS011;19909;43.644;-79.438;2023-06-14T02:39:10;5.30;;;4.80;;
33579;SDS011;19909;43.644;-79.438;2023-06-14T02:41:37;5.90;;;4.78;;
33579;SDS011;19909;43.644;-79.438;2023-06-14T02:44:04;5.97;;;5.38;;
33579;SDS011;19909;43.644;-79.438;2023-06-14T02:46:30;5.38;;;4.88;;
33579;SDS011;19909;43.644;-79.438;2023-06-14T02:48:57;5.03;;;4.53;;
33579;SDS011;19909;43.644;-79.438;2023-06-14T02:51:23;5.78;;;4.80;;
33579;SDS011;19909;43.644;-79.438;2023-06-14T02:53:49;5.72;;;5.10;;
33579;SDS011;19909;43.644;-79.438;2023-06-14T02:56:16;5.57;;;5.03;;
33579;SDS011;19909;43.644;-79.438;2023-06-14T02:58:42;5.53;;;4.90;;
33579;SDS011;19909;43.644;-79.438;2023-06-14T03:01:08;4.68;;;4.18;;
33579;SDS011;19909;43.644;-79.438;2023-06-14T03:03:38;5.38;;;4.85;;
33579;SDS011;19909;43.644;-79.438;2023-06-14T03:06:04;5.82;;;4.70;;
33579;SDS011;19909;43.644;-79.438;2023-06-14T03:08:31;6.22;;;4.85;;
33579;SDS011;19909;43.644;-79.438;2023-06-14T03:13:36;5.10;;;4.45;;
33579;SDS011;19909;43.644;-79.438;2023-06-14T03:16:04;4.65;;;3.80;;
33579;SDS011;19909;43.644;-79.438;2023-06-14T03:18:30;4.55;;;4.07;;
33579;SDS011;19909;43.644;-79.438;2023-06-14T03:21:01;4.65;;;4.22;;
33579;SDS011;19909;43.644;-79.438;2023-06-14T03:23:27;4.60;;;4.20;;
33579;SDS011;19909;43.644;-79.438;2023-06-14T03:25:54;4.55;;;3.97;;
33579;SDS011;19909;43.644;-79.438;2023-06-14T03:28:21;4.88;;;4.38;;
33579;SDS011;19909;43.644;-79.438;2023-06-14T03:30:47;5.45;;;4.50;;
33579;SDS011;19909;43.644;-79.438;2023-06-14T03:33:13;4.30;;;3.90;;
33579;SDS011;19909;43.644;-79.438;2023-06-14T03:35:40;4.60;;;4.00;;
33579;SDS011;19909;43.644;-79.438;2023-06-14T03:38:06;4.20;;;3.80;;
33579;SDS011;19909;43.644;-79.438;2023-06-14T03:40:33;4.50;;;4.03;;
33579;SDS011;19909;43.644;-79.438;2023-06-14T03:42:59;4.07;;;3.58;;
33579;SDS011;19909;43.644;-79.438;2023-06-14T03:45:25;3.95;;;3.55;;
33579;SDS011;19909;43.644;-79.438;2023-06-14T03:47:51;4.50;;;3.53;;
33579;SDS011;19909;43.644;-79.438;2023-06-14T03:50:17;4.43;;;4.00;;
33579;SDS011;19909;43.644;-79.438;2023-06-14T03:52:44;3.88;;;3.42;;
33579;SDS011;19909;43.644;-79.438;2023-06-14T03:55:10;4.60;;;3.55;;
33579;SDS011;19909;43.644;-79.438;2023-06-14T03:57:38;4.30;;;3.90;;
33579;SDS011;19909;43.644;-79.438;2023-06-14T04:00:04;3.70;;;3.35;;
33579;SDS011;19909;43.644;-79.438;2023-06-14T04:02:31;3.97;;;3.60;;
33579;SDS011;19909;43.644;-79.438;2023-06-14T04:04:57;4.30;;;3.33;;
33579;SDS011;19909;43.644;-79.438;2023-06-14T04:07:24;3.97;;;3.35;;
33579;SDS011;19909;43.644;-79.438;2023-06-14T04:09:53;3.78;;;3.30;;
33579;SDS011;19909;43.644;-79.438;2023-06-14T04:12:20;3.72;;;3.15;;
33579;SDS011;19909;43.644;-79.438;2023-06-14T04:14:46;3.85;;;3.13;;
33579;SDS011;19909;43.644;-79.438;2023-06-14T04:17:12;3.10;;;2.80;;
33579;SDS011;19909;43.644;-79.438;2023-06-14T04:19:38;3.45;;;3.08;;
33579;SDS011;19909;43.644;-79.438;2023-06-14T04:22:04;3.60;;;3.30;;
33579;SDS011;19909;43.644;-79.438;2023-06-14T04:24:31;3.80;;;3.17;;
33579;SDS011;19909;43.644;-79.438;2023-06-14T04:27:00;4.18;;;3.58;;
33579;SDS011;19909;43.644;-79.438;2023-06-14T04:29:26;3.53;;;3.22;;
33579;SDS011;19909;43.644;-79.438;2023-06-14T04:31:54;3.00;;;2.70;;
33579;SDS011;19909;43.644;-79.438;2023-06-14T04:34:26;2.97;;;2.75;;
33579;SDS011;19909;43.644;-79.438;2023-06-14T04:36:56;3.45;;;3.10;;
33579;SDS011;19909;43.644;-79.438;2023-06-14T04:39:25;3.47;;;3.13;;
33579;SDS011;19909;43.644;-79.438;2023-06-14T04:41:51;3.55;;;2.97;;
33579;SDS011;19909;43.644;-79.438;2023-06-14T04:44:21;3.42;;;3.00;;
33579;SDS011;19909;43.644;-79.438;2023-06-14T04:46:58;3.70;;;3.38;;
33579;SDS011;19909;43.644;-79.438;2023-06-14T04:49:24;3.20;;;2.78;;
33579;SDS011;19909;43.644;-79.438;2023-06-14T04:51:52;3.45;;;3.00;;
33579;SDS011;19909;43.644;-79.438;2023-06-14T04:54:26;3.22;;;2.92;;
33579;SDS011;19909;43.644;-79.438;2023-06-14T04:56:53;2.97;;;2.47;;
33579;SDS011;19909;43.644;-79.438;2023-06-14T04:59:20;3.30;;;2.80;;
33579;SDS011;19909;43.644;-79.438;2023-06-14T05:01:48;3.30;;;3.00;;
33579;SDS011;19909;43.644;-79.438;2023-06-14T05:04:16;3.00;;;2.70;;
33579;SDS011;19909;43.644;-79.438;2023-06-14T05:06:44;3.30;;;2.75;;
33579;SDS011;19909;43.644;-79.438;2023-06-14T05:09:11;3.65;;;2.95;;
33579;SDS011;19909;43.644;-79.438;2023-06-14T05:11:38;2.50;;;2.22;;
33579;SDS011;19909;43.644;-79.438;2023-06-14T05:14:05;3.00;;;2.70;;
33579;SDS011;19909;43.644;-79.438;2023-06-14T05:16:31;2.97;;;2.55;;
33579;SDS011;19909;43.644;-79.438;2023-06-14T05:18:57;2.70;;;2.50;;
33579;SDS011;19909;43.644;-79.438;2023-06-14T05:21:24;3.17;;;2.50;;
33579;SDS011;19909;43.644;-79.438;2023-06-14T05:23:50;2.72;;;2.42;;
33579;SDS011;19909;43.644;-79.438;2023-06-14T05:26:16;2.97;;;2.55;;
33579;SDS011;19909;43.644;-79.438;2023-06-14T05:28:44;2.55;;;2.35;;
33579;SDS011;19909;43.644;-79.438;2023-06-14T05:31:10;4.15;;;2.15;;
33579;SDS011;19909;43.644;-79.438;2023-06-14T05:33:36;3.05;;;2.28;;
33579;SDS011;19909;43.644;-79.438;2023-06-14T05:36:03;2.80;;;2.60;;
33579;SDS011;19909;43.644;-79.438;2023-06-14T05:38:29;2.50;;;2.25;;
33579;SDS011;19909;43.644;-79.438;2023-06-14T05:40:55;2.28;;;2.08;;
33579;SDS011;19909;43.644;-79.438;2023-06-14T05:43:21;3.17;;;2.67;;
33579;SDS011;19909;43.644;-79.438;2023-06-14T05:45:47;2.33;;;1.92;;
33579;SDS011;19909;43.644;-79.438;2023-06-14T05:48:13;2.33;;;2.13;;
33579;SDS011;19909;43.644;-79.438;2023-06-14T05:50:39;2.53;;;2.33;;
33579;SDS011;19909;43.644;-79.438;2023-06-14T05:53:05;2.75;;;2.35;;
33579;SDS011;19909;43.644;-79.438;2023-06-14T05:55:32;2.65;;;2.00;;
33579;SDS011;19909;43.644;-79.438;2023-06-14T05:57:58;2.15;;;1.92;;
33579;SDS011;19909;43.644;-79.438;2023-06-14T06:00:24;2.65;;;2.25;;
33579;SDS011;19909;43.644;-79.438;2023-06-14T06:02:50;3.05;;;2.25;;
33579;SDS011;19909;43.644;-79.438;2023-06-14T06:05:16;4.18;;;2.22;;
33579;SDS011;19909;43.644;-79.438;2023-06-14T06:07:42;2.38;;;2.17;;
33579;SDS011;19909;43.644;-79.438;2023-06-14T06:10:11;2.05;;;1.75;;
33579;SDS011;19909;43.644;-79.438;2023-06-14T06:12:37;2.20;;;2.00;;
33579;SDS011;19909;43.644;-79.438;2023-06-14T06:15:04;2.08;;;1.88;;
33579;SDS011;19909;43.644;-79.438;2023-06-14T06:17:31;2.40;;;2.00;;
33579;SDS011;19909;43.644;-79.438;2023-06-14T06:19:57;3.90;;;1.85;;
33579;SDS011;19909;43.644;-79.438;2023-06-14T06:22:23;2.60;;;2.40;;
33579;SDS011;19909;43.644;-79.438;2023-06-14T06:24:49;2.67;;;2.47;;
33579;SDS011;19909;43.644;-79.438;2023-06-14T06:27:15;2.95;;;2.25;;
33579;SDS011;19909;43.644;-79.438;2023-06-14T06:29:44;2.13;;;1.92;;
33579;SDS011;19909;43.644;-79.438;2023-06-14T06:32:10;2.30;;;2.10;;
33579;SDS011;19909;43.644;-79.438;2023-06-14T06:34:36;2.47;;;2.17;;
33579;SDS011;19909;43.644;-79.438;2023-06-14T06:37:02;2.10;;;1.90;;
33579;SDS011;19909;43.644;-79.438;2023-06-14T06:39:28;2.33;;;2.13;;
33579;SDS011;19909;43.644;-79.438;2023-06-14T06:41:54;2.85;;;2.20;;
33579;SDS011;19909;43.644;-79.438;2023-06-14T06:44:21;2.42;;;2.22;;
33579;SDS011;19909;43.644;-79.438;2023-06-14T06:46:47;2.58;;;1.85;;
33579;SDS011;19909;43.644;-79.438;2023-06-14T06:49:13;2.40;;;2.20;;
33579;SDS011;19909;43.644;-79.438;2023-06-14T06:51:42;1.85;;;1.75;;
33579;SDS011;19909;43.644;-79.438;2023-06-14T06:54:24;2.22;;;2.03;;
33579;SDS011;19909;43.644;-79.438;2023-06-14T06:56:50;2.08;;;1.88;;
33579;SDS011;19909;43.644;-79.438;2023-06-14T06:59:16;2.10;;;1.90;;
33579;SDS011;19909;43.644;-79.438;2023-06-14T07:01:42;2.35;;;1.95;;
33579;SDS011;19909;43.644;-79.438;2023-06-14T07:04:08;2.10;;;1.85;;
33579;SDS011;19909;43.644;-79.438;2023-06-14T07:06:34;2.10;;;1.85;;
33579;SDS011;19909;43.644;-79.438;2023-06-14T07:09:01;2.22;;;2.03;;
33579;SDS011;19909;43.644;-79.438;2023-06-14T07:11:27;1.98;;;1.85;;
33579;SDS011;19909;43.644;-79.438;2023-06-14T07:13:53;1.80;;;1.70;;
33579;SDS011;19909;43.644;-79.438;2023-06-14T07:16:20;1.98;;;1.85;;
33579;SDS011;19909;43.644;-79.438;2023-06-14T07:18:46;2.20;;;1.95;;
33579;SDS011;19909;43.644;-79.438;2023-06-14T07:21:13;1.92;;;1.67;;
33579;SDS011;19909;43.644;-79.438;2023-06-14T07:23:39;3.75;;;2.03;;
33579;SDS011;19909;43.644;-79.438;2023-06-14T07:26:06;2.97;;;1.88;;
33579;SDS011;19909;43.644;-79.438;2023-06-14T07:28:32;2.10;;;1.90;;
33579;SDS011;19909;43.644;-79.438;2023-06-14T07:30:58;2.03;;;1.83;;
33579;SDS011;19909;43.644;-79.438;2023-06-14T07:33:24;2.25;;;2.03;;
33579;SDS011;19909;43.644;-79.438;2023-06-14T07:35:51;1.65;;;1.55;;
33579;SDS011;19909;43.644;-79.438;2023-06-14T07:38:18;1.83;;;1.73;;
33579;SDS011;19909;43.644;-79.438;2023-06-14T07:40:44;3.35;;;2.13;;
33579;SDS011;19909;43.644;-79.438;2023-06-14T07:43:10;1.73;;;1.58;;
33579;SDS011;19909;43.644;-79.438;2023-06-14T07:45:37;1.88;;;1.77;;
33579;SDS011;19909;43.644;-79.438;2023-06-14T07:48:03;1.85;;;1.73;;
33579;SDS011;19909;43.644;-79.438;2023-06-14T07:50:29;1.77;;;1.67;;
33579;SDS011;19909;43.644;-79.438;2023-06-14T07:52:56;2.00;;;1.80;;
33579;SDS011;19909;43.644;-79.438;2023-06-14T07:55:22;2.17;;;1.98;;
33579;SDS011;19909;43.644;-79.438;2023-06-14T07:57:50;2.25;;;1.80;;
33579;SDS011;19909;43.644;-79.438;2023-06-14T08:00:16;3.13;;;2.10;;
33579;SDS011;19909;43.644;-79.438;2023-06-14T08:02:43;1.88;;;1.48;;
33579;SDS011;19909;43.644;-79.438;2023-06-14T08:05:10;3.05;;;1.70;;
33579;SDS011;19909;43.644;-79.438;2023-06-14T08:07:37;2.10;;;1.90;;
33579;SDS011;19909;43.644;-79.438;2023-06-14T08:10:05;2.25;;;1.85;;
33579;SDS011;19909;43.644;-79.438;2023-06-14T08:12:32;2.08;;;1.88;;
33579;SDS011;19909;43.644;-79.438;2023-06-14T08:14:59;2.17;;;1.98;;
33579;SDS011;19909;43.644;-79.438;2023-06-14T08:17:25;2.58;;;2.00;;
33579;SDS011;19909;43.644;-79.438;2023-06-14T08:19:52;1.73;;;1.63;;
33579;SDS011;19909;43.644;-79.438;2023-06-14T08:22:22;2.30;;;1.70;;
33579;SDS011;19909;43.644;-79.438;2023-06-14T08:24:53;2.22;;;2.03;;
33579;SDS011;19909;43.644;-79.438;2023-06-14T08:27:19;3.03;;;1.88;;
33579;SDS011;19909;43.644;-79.438;2023-06-14T08:29:46;2.10;;;1.90;;
33579;SDS011;19909;43.644;-79.438;2023-06-14T08:32:12;2.50;;;2.03;;
33579;SDS011;19909;43.644;-79.438;2023-06-14T08:34:38;2.33;;;2.13;;
33579;SDS011;19909;43.644;-79.438;2023-06-14T08:37:04;3.08;;;2.13;;
33579;SDS011;19909;43.644;-79.438;2023-06-14T08:39:31;1.98;;;1.88;;
33579;SDS011;19909;43.644;-79.438;2023-06-14T08:41:57;1.75;;;1.65;;
33579;SDS011;19909;43.644;-79.438;2023-06-14T08:44:26;2.28;;;1.90;;
33579;SDS011;19909;43.644;-79.438;2023-06-14T08:46:52;2.03;;;1.83;;
33579;SDS011;19909;43.644;-79.438;2023-06-14T08:49:24;2.00;;;1.80;;
33579;SDS011;19909;43.644;-79.438;2023-06-14T08:51:58;2.03;;;1.83;;
33579;SDS011;19909;43.644;-79.438;2023-06-14T08:54:27;2.20;;;1.95;;
33579;SDS011;19909;43.644;-79.438;2023-06-14T08:56:57;2.25;;;2.05;;
33579;SDS011;19909;43.644;-79.438;2023-06-14T08:59:27;1.75;;;1.65;;
33579;SDS011;19909;43.644;-79.438;2023-06-14T09:01:56;2.72;;;2.20;;
33579;SDS011;19909;43.644;-79.438;2023-06-14T09:04:22;2.15;;;1.95;;
33579;SDS011;19909;43.644;-79.438;2023-06-14T09:06:55;2.70;;;2.50;;
33579;SDS011;19909;43.644;-79.438;2023-06-14T09:09:22;2.58;;;2.00;;
33579;SDS011;19909;43.644;-79.438;2023-06-14T09:11:52;2.58;;;2.38;;
33579;SDS011;19909;43.644;-79.438;2023-06-14T09:14:18;2.30;;;2.10;;
33579;SDS011;19909;43.644;-79.438;2023-06-14T09:16:45;2.45;;;2.25;;
33579;SDS011;19909;43.644;-79.438;2023-06-14T09:19:20;2.33;;;2.13;;
33579;SDS011;19909;43.644;-79.438;2023-06-14T09:21:48;2.25;;;2.05;;
33579;SDS011;19909;43.644;-79.438;2023-06-14T09:24:15;3.78;;;2.20;;
33579;SDS011;19909;43.644;-79.438;2023-06-14T09:26:41;1.90;;;1.70;;
33579;SDS011;19909;43.644;-79.438;2023-06-14T09:29:08;2.33;;;2.10;;
33579;SDS011;19909;43.644;-79.438;2023-06-14T09:31:35;2.17;;;1.98;;
33579;SDS011;19909;43.644;-79.438;2023-06-14T09:34:02;2.70;;;2.50;;
33579;SDS011;19909;43.644;-79.438;2023-06-14T09:36:31;2.45;;;2.25;;
33579;SDS011;19909;43.644;-79.438;2023-06-14T09:38:58;2.35;;;2.10;;
33579;SDS011;19909;43.644;-79.438;2023-06-14T09:44:01;2.65;;;2.40;;
33579;SDS011;19909;43.644;-79.438;2023-06-14T09:46:32;2.80;;;2.60;;
33579;SDS011;19909;43.644;-79.438;2023-06-14T09:48:59;2.53;;;2.30;;
33579;SDS011;19909;43.644;-79.438;2023-06-14T09:51:26;2.15;;;1.90;;
33579;SDS011;19909;43.644;-79.438;2023-06-14T09:53:55;2.53;;;2.33;;
33579;SDS011;19909;43.644;-79.438;2023-06-14T09:56:30;3.05;;;2.28;;
33579;SDS011;19909;43.644;-79.438;2023-06-14T09:59:05;2.47;;;2.28;;
33579;SDS011;19909;43.644;-79.438;2023-06-14T10:01:35;2.55;;;2.35;;
33579;SDS011;19909;43.644;-79.438;2023-06-14T10:04:06;2.83;;;2.50;;
33579;SDS011;19909;43.644;-79.438;2023-06-14T10:06:37;4.00;;;2.25;;
33579;SDS011;19909;43.644;-79.438;2023-06-14T10:09:07;2.17;;;1.98;;
33579;SDS011;19909;43.644;-79.438;2023-06-14T10:11:35;2.80;;;2.30;;
33579;SDS011;19909;43.644;-79.438;2023-06-14T10:14:02;2.67;;;2.47;;
33579;SDS011;19909;43.644;-79.438;2023-06-14T10:16:31;2.42;;;2.17;;
33579;SDS011;19909;43.644;-79.438;2023-06-14T10:19:11;2.78;;;2.47;;
33579;SDS011;19909;43.644;-79.438;2023-06-14T10:21:46;3.88;;;2.15;;
33579;SDS011;19909;43.644;-79.438;2023-06-14T10:24:23;2.92;;;2.42;;
33579;SDS011;19909;43.644;-79.438;2023-06-14T10:26:58;2.50;;;2.28;;
33579;SDS011;19909;43.644;-79.438;2023-06-14T10:29:26;2.83;;;2.20;;
33579;SDS011;19909;43.644;-79.438;2023-06-14T10:32:01;3.70;;;2.40;;
33579;SDS011;19909;43.644;-79.438;2023-06-14T10:34:29;3.05;;;2.80;;
33579;SDS011;19909;43.644;-79.438;2023-06-14T10:39:29;3.15;;;2.58;;
33579;SDS011;19909;43.644;-79.438;2023-06-14T10:41:57;2.67;;;2.38;;
33579;SDS011;19909;43.644;-79.438;2023-06-14T10:46:55;3.92;;;2.80;;
33579;SDS011;19909;43.644;-79.438;2023-06-14T10:52:14;2.58;;;2.08;;
33579;SDS011;19909;43.644;-79.438;2023-06-14T10:57:32;2.47;;;2.28;;
33579;SDS011;19909;43.644;-79.438;2023-06-14T10:59:59;2.80;;;2.40;;
33579;SDS011;19909;43.644;-79.438;2023-06-14T11:05:16;2.65;;;2.38;;
33579;SDS011;19909;43.644;-79.438;2023-06-14T11:13:12;2.80;;;2.28;;
33579;SDS011;19909;43.644;-79.438;2023-06-14T11:15:43;3.33;;;2.35;;
33579;SDS011;19909;43.644;-79.438;2023-06-14T11:18:11;2.38;;;1.98;;
33579;SDS011;19909;43.644;-79.438;2023-06-14T11:20:39;3.55;;;2.28;;
33579;SDS011;19909;43.644;-79.438;2023-06-14T11:23:05;2.90;;;2.58;;
33579;SDS011;19909;43.644;-79.438;2023-06-14T11:25:32;3.35;;;2.67;;
33579;SDS011;19909;43.644;-79.438;2023-06-14T11:27:58;3.65;;;2.90;;
33579;SDS011;19909;43.644;-79.438;2023-06-14T11:30:24;2.40;;;2.20;;
33579;SDS011;19909;43.644;-79.438;2023-06-14T11:32:52;3.00;;;2.53;;
33579;SDS011;19909;43.644;-79.438;2023-06-14T11:35:19;2.40;;;2.20;;
33579;SDS011;19909;43.644;-79.438;2023-06-14T11:37:54;2.92;;;2.63;;
33579;SDS011;19909;43.644;-79.438;2023-06-14T11:40:24;2.92;;;2.38;;
33579;SDS011;19909;43.644;-79.438;2023-06-14T11:42:59;3.20;;;2.90;;
33579;SDS011;19909;43.644;-79.438;2023-06-14T11:45:26;2.88;;;2.55;;
33579;SDS011;19909;43.644;-79.438;2023-06-14T11:47:56;2.60;;;2.40;;
33579;SDS011;19909;43.644;-79.438;2023-06-14T11:50:24;2.90;;;2.67;;
33579;SDS011;19909;43.644;-79.438;2023-06-14T11:52:57;2.53;;;2.33;;
33579;SDS011;19909;43.644;-79.438;2023-06-14T11:55:32;4.13;;;2.88;;
33579;SDS011;19909;43.644;-79.438;2023-06-14T11:58:10;3.17;;;2.67;;
33579;SDS011;19909;43.644;-79.438;2023-06-14T12:00:36;3.30;;;2.72;;
33579;SDS011;19909;43.644;-79.438;2023-06-14T12:03:03;3.00;;;2.40;;
33579;SDS011;19909;43.644;-79.438;2023-06-14T12:05:29;2.75;;;2.38;;
33579;SDS011;19909;43.644;-79.438;2023-06-14T12:07:59;3.83;;;2.78;;
33579;SDS011;19909;43.644;-79.438;2023-06-14T12:10:27;3.67;;;2.50;;
33579;SDS011;19909;43.644;-79.438;2023-06-14T12:12:58;3.28;;;2.60;;
33579;SDS011;19909;43.644;-79.438;2023-06-14T12:15:27;2.45;;;2.25;;
33579;SDS011;19909;43.644;-79.438;2023-06-14T12:17:54;3.88;;;2.33;;
33579;SDS011;19909;43.644;-79.438;2023-06-14T12:20:20;2.42;;;2.22;;
33579;SDS011;19909;43.644;-79.438;2023-06-14T12:22:50;3.80;;;2.65;;
33579;SDS011;19909;43.644;-79.438;2023-06-14T12:25:26;2.85;;;2.40;;
33579;SDS011;19909;43.644;-79.438;2023-06-14T12:28:00;2.38;;;2.17;;
33579;SDS011;19909;43.644;-79.438;2023-06-14T12:30:31;2.53;;;2.33;;
33579;SDS011;19909;43.644;-79.438;2023-06-14T12:32:57;4.25;;;2.40;;
33579;SDS011;19909;43.644;-79.438;2023-06-14T12:35:23;3.15;;;2.85;;
33579;SDS011;19909;43.644;-79.438;2023-06-14T12:37:50;2.65;;;2.45;;
33579;SDS011;19909;43.644;-79.438;2023-06-14T12:40:16;3.53;;;2.72;;
33579;SDS011;19909;43.644;-79.438;2023-06-14T12:42:44;3.08;;;2.33;;
33579;SDS011;19909;43.644;-79.438;2023-06-14T12:45:12;2.90;;;2.42;;
33579;SDS011;19909;43.644;-79.438;2023-06-14T12:47:38;3.00;;;2.50;;
33579;SDS011;19909;43.644;-79.438;2023-06-14T12:50:05;3.17;;;2.70;;
33579;SDS011;19909;43.644;-79.438;2023-06-14T12:52:32;3.10;;;2.70;;
33579;SDS011;19909;43.644;-79.438;2023-06-14T12:55:02;2.70;;;2.38;;
33579;SDS011;19909;43.644;-79.438;2023-06-14T12:57:31;3.08;;;2.38;;
33579;SDS011;19909;43.644;-79.438;2023-06-14T12:59:59;3.70;;;2.33;;
33579;SDS011;19909;43.644;-79.438;2023-06-14T13:02:26;3.22;;;2.92;;
33579;SDS011;19909;43.644;-79.438;2023-06-14T13:04:52;3.10;;;2.75;;
33579;SDS011;19909;43.644;-79.438;2023-06-14T13:07:18;3.08;;;2.50;;
33579;SDS011;19909;43.644;-79.438;2023-06-14T13:09:44;2.60;;;2.40;;
33579;SDS011;19909;43.644;-79.438;2023-06-14T13:12:10;3.03;;;2.80;;
33579;SDS011;19909;43.644;-79.438;2023-06-14T13:14:37;2.45;;;2.08;;
33579;SDS011;19909;43.644;-79.438;2023-06-14T13:17:09;3.92;;;2.85;;
33579;SDS011;19909;43.644;-79.438;2023-06-14T13:19:36;3.60;;;2.75;;
33579;SDS011;19909;43.644;-79.438;2023-06-14T13:22:02;2.92;;;2.50;;
33579;SDS011;19909;43.644;-79.438;2023-06-14T13:24:29;2.72;;;2.28;;
33579;SDS011;19909;43.644;-79.438;2023-06-14T13:26:55;3.72;;;2.60;;
33579;SDS011;19909;43.644;-79.438;2023-06-14T13:29:23;2.40;;;2.20;;
33579;SDS011;19909;43.644;-79.438;2023-06-14T13:31:50;2.75;;;2.55;;
33579;SDS011;19909;43.644;-79.438;2023-06-14T13:34:16;4.43;;;2.83;;
33579;SDS011;19909;43.644;-79.438;2023-06-14T13:36:42;2.53;;;2.33;;
33579;SDS011;19909;43.644;-79.438;2023-06-14T13:39:08;3.05;;;2.72;;
33579;SDS011;19909;43.644;-79.438;2023-06-14T13:41:36;2.70;;;2.42;;
33579;SDS011;19909;43.644;-79.438;2023-06-14T13:44:02;2.72;;;2.20;;
33579;SDS011;19909;43.644;-79.438;2023-06-14T13:46:31;2.60;;;2.40;;
33579;SDS011;19909;43.644;-79.438;2023-06-14T13:48:57;2.22;;;2.03;;
33579;SDS011;19909;43.644;-79.438;2023-06-14T13:51:25;2.85;;;2.38;;
33579;SDS011;19909;43.644;-79.438;2023-06-14T13:53:52;3.05;;;2.50;;
33579;SDS011;19909;43.644;-79.438;2023-06-14T13:56:20;2.15;;;1.95;;
33579;SDS011;19909;43.644;-79.438;2023-06-14T13:58:47;2.60;;;2.20;;
33579;SDS011;19909;43.644;-79.438;2023-06-14T14:01:14;2.30;;;2.10;;
33579;SDS011;19909;43.644;-79.438;2023-06-14T14:03:40;3.10;;;2.70;;
33579;SDS011;19909;43.644;-79.438;2023-06-14T14:06:06;3.22;;;2.60;;
33579;SDS011;19909;43.644;-79.438;2023-06-14T14:08:32;3.22;;;2.35;;
33579;SDS011;19909;43.644;-79.438;2023-06-14T14:10:59;2.60;;;2.40;;
33579;SDS011;19909;43.644;-79.438;2023-06-14T14:13:25;2.88;;;2.53;;
33579;SDS011;19909;43.644;-79.438;2023-06-14T14:15:52;2.65;;;2.45;;
33579;SDS011;19909;43.644;-79.438;2023-06-14T14:18:18;2.50;;;2.30;;
33579;SDS011;19909;43.644;-79.438;2023-06-14T14:20:46;2.88;;;2.67;;
33579;SDS011;19909;43.644;-79.438;2023-06-14T14:23:12;3.20;;;2.53;;
33579;SDS011;19909;43.644;-79.438;2023-06-14T14:25:39;3.17;;;2.60;;
33579;SDS011;19909;43.644;-79.438;2023-06-14T14:28:05;2.97;;;2.72;;
33579;SDS011;19909;43.644;-79.438;2023-06-14T14:30:31;3.95;;;2.55;;
33579;SDS011;19909;43.644;-79.438;2023-06-14T14:32:57;5.03;;;3.17;;
33579;SDS011;19909;43.644;-79.438;2023-06-14T14:35:24;2.75;;;2.45;;
33579;SDS011;19909;43.644;-79.438;2023-06-14T14:37:55;2.92;;;2.60;;
33579;SDS011;19909;43.644;-79.438;2023-06-14T14:40:21;3.33;;;2.80;;
33579;SDS011;19909;43.644;-79.438;2023-06-14T14:42:47;3.13;;;2.65;;
33579;SDS011;19909;43.644;-79.438;2023-06-14T14:45:14;3.15;;;2.42;;
33579;SDS011;19909;43.644;-79.438;2023-06-14T14:47:40;3.80;;;2.50;;
33579;SDS011;19909;43.644;-79.438;2023-06-14T14:50:06;3.20;;;2.55;;
33579;SDS011;19909;43.644;-79.438;2023-06-14T14:52:35;3.00;;;2.50;;